Time;durP1;ratioP1;P1;durP2;ratioP2;P2;SDS_P1;SDS_P2;PMS_P1;PMS_P2;Temp;Humidity;BMP_temperature;BMP_pressure;BME280_temperature;BME280_humidity;BME280_pressure;Samples;Min_cycle;Max_cycle;Signal;HPM_P1;HPM_P2
2020/12/01 00:01:32;;;;;;;20.30;12.45;;;;;;;-1.30;74.34;97268.22;1627010;88;21194;-78
2020/12/01 00:04:00;;;;;;;19.40;11.43;;;;;;;-1.33;74.28;97265.50;1626868;88;21206;-78
2020/12/01 00:06:32;;;;;;;24.72;12.28;;;;;;;-1.32;74.68;97263.21;1626892;88;21162;-79
2020/12/01 00:08:59;;;;;;;26.33;12.93;;;;;;;-1.31;74.76;97264.81;1626964;88;21563;-80
2020/12/01 00:11:26;;;;;;;23.40;13.55;;;;;;;-1.30;74.73;97257.32;1627104;87;21200;-80
2020/12/01 00:13:53;;;;;;;25.40;14.18;;;;;;;-1.30;74.82;97258.63;1599980;90;21207;-80
2020/12/01 00:16:20;;;;;;;21.05;12.80;;;;;;;-1.32;74.76;97252.00;1630892;88;21512;-80
2020/12/01 00:18:47;;;;;;;24.07;13.03;;;;;;;-1.32;74.79;97251.51;1630953;88;21190;-80
2020/12/01 00:21:18;;;;;;;23.92;13.65;;;;;;;-1.33;74.97;97255.59;1631123;88;21194;-80
2020/12/01 00:23:46;;;;;;;26.02;13.10;;;;;;;-1.32;75.20;97248.10;1631011;88;21158;-80
2020/12/01 00:26:17;;;;;;;21.97;11.25;;;;;;;-1.34;75.00;97248.30;1630992;88;21549;-80
2020/12/01 00:28:47;;;;;;;22.27;13.03;;;;;;;-1.31;74.96;97244.02;1630682;88;21208;-79
2020/12/01 00:31:16;;;;;;;23.50;12.23;;;;;;;-1.28;74.61;97255.33;1631060;88;21186;-79
2020/12/01 00:33:43;;;;;;;14.93;8.53;;;;;;;-1.28;74.78;97254.03;1631233;88;21198;-79
2020/12/01 00:36:10;;;;;;;21.80;11.63;;;;;;;-1.24;74.34;97254.48;1631105;88;21194;-79
2020/12/01 00:38:37;;;;;;;19.45;10.82;;;;;;;-1.20;73.60;97244.00;1631056;88;21182;-79
2020/12/01 00:41:04;;;;;;;21.95;10.43;;;;;;;-1.18;74.10;97255.52;1631057;88;21194;-79
2020/12/01 00:43:31;;;;;;;24.55;14.65;;;;;;;-1.25;74.24;97256.28;1631383;88;21186;-79
2020/12/01 00:45:58;;;;;;;20.40;10.85;;;;;;;-1.28;74.47;97255.83;1631478;88;21185;-79
2020/12/01 00:48:25;;;;;;;18.82;10.88;;;;;;;-1.30;74.35;97252.12;1631425;88;21175;-79
2020/12/01 00:50:52;;;;;;;21.00;12.00;;;;;;;-1.32;74.35;97264.51;1631514;88;21174;-79
2020/12/01 00:53:19;;;;;;;21.90;12.93;;;;;;;-1.32;74.10;97245.00;1631512;88;21548;-79
2020/12/01 00:55:46;;;;;;;23.20;13.05;;;;;;;-1.28;74.27;97252.73;1631484;88;21186;-79
2020/12/01 00:58:13;;;;;;;19.77;12.35;;;;;;;-1.27;74.43;97252.23;1631431;88;21166;-79
2020/12/01 01:00:41;;;;;;;23.98;12.45;;;;;;;-1.31;74.40;97254.91;1624468;88;21201;-79
2020/12/01 01:03:08;;;;;;;23.95;12.82;;;;;;;-1.29;74.29;97249.83;1620141;88;21316;-79
2020/12/01 01:05:36;;;;;;;13.98;7.62;;;;;;;-1.26;74.45;97254.67;1620139;89;21570;-79
2020/12/01 01:08:03;;;;;;;19.92;11.48;;;;;;;-1.25;73.83;97248.48;1620357;89;21224;-79
2020/12/01 01:10:33;;;;;;;22.90;11.68;;;;;;;-1.26;74.24;97249.97;1620229;89;21317;-79
2020/12/01 01:13:02;;;;;;;24.52;12.68;;;;;;;-1.31;74.13;97255.72;1610783;89;21168;-79
2020/12/01 01:15:33;;;;;;;17.00;9.88;;;;;;;-1.31;74.11;97250.52;1606614;89;21175;-79
2020/12/01 01:18:01;;;;;;;20.17;10.25;;;;;;;-1.31;74.09;97245.31;1606569;89;21183;-79
2020/12/01 01:20:30;;;;;;;20.15;11.55;;;;;;;-1.31;73.97;97240.61;1606534;89;21179;-79
2020/12/01 01:22:58;;;;;;;22.50;12.43;;;;;;;-1.31;74.17;97243.20;1606548;89;21212;-79
2020/12/01 01:25:26;;;;;;;23.55;12.75;;;;;;;-1.32;74.38;97242.41;1606569;89;21175;-79
2020/12/01 01:27:53;;;;;;;25.88;12.93;;;;;;;-1.34;74.34;97247.48;1606483;89;21219;-79
2020/12/01 01:30:24;;;;;;;21.87;12.18;;;;;;;-1.34;74.34;97239.19;1606645;89;21569;-79
2020/12/01 01:32:52;;;;;;;23.25;12.13;;;;;;;-1.32;74.15;97239.80;1606638;89;21175;-80
2020/12/01 01:35:20;;;;;;;18.85;8.53;;;;;;;-1.31;74.37;97238.00;1606659;89;21155;-80
2020/12/01 01:37:47;;;;;;;16.10;8.53;;;;;;;-1.35;74.64;97231.08;1606756;89;21211;-80
2020/12/01 01:40:25;;;;;;;21.35;11.22;;;;;;;-1.42;74.32;97219.80;1606472;89;21221;-80
2020/12/01 01:42:53;;;;;;;20.57;11.45;;;;;;;-1.40;74.60;97227.45;1615057;89;21526;-80
2020/12/01 01:45:46;;;;;;;23.15;12.90;;;;;;;-1.43;74.83;97232.50;1620114;89;21178;-80
2020/12/01 01:48:31;;;;;;;21.60;11.03;;;;;;;-1.48;75.08;97231.46;1615712;89;21227;-80
2020/12/01 01:51:09;;;;;;;25.37;13.45;;;;;;;-1.53;75.42;97224.23;1620311;89;21186;-79
2020/12/01 01:53:42;;;;;;;21.42;12.05;;;;;;;-1.58;75.52;97224.77;1620051;89;21693;-79
2020/12/01 01:56:14;;;;;;;20.23;9.93;;;;;;;-1.57;75.64;97225.08;1619983;89;21701;-79
2020/12/01 01:58:45;;;;;;;23.02;13.25;;;;;;;-1.56;75.65;97214.98;1620179;88;21344;-79
2020/12/01 02:01:20;;;;;;;23.05;12.00;;;;;;;-1.59;75.78;97223.66;1627943;88;21193;-79
2020/12/01 02:03:53;;;;;;;21.10;12.53;;;;;;;-1.61;75.93;97223.05;1631544;88;21154;-80
2020/12/01 02:06:28;;;;;;;21.12;11.73;;;;;;;-1.67;75.91;97220.70;1631636;88;21170;-79
2020/12/01 02:11:45;;;;;;;19.23;11.03;;;;;;;-1.50;75.25;97214.75;1781079;79;23042;-78
2020/12/01 02:14:33;;;;;;;17.20;9.48;;;;;;;-1.58;75.19;97213.07;1729806;83;21482;-78
2020/12/01 02:17:23;;;;;;;18.12;10.18;;;;;;;-1.64;75.25;97202.63;1728888;83;21155;-79
2020/12/01 02:19:55;;;;;;;13.22;7.00;;;;;;;-1.67;75.00;97206.41;1729490;83;21175;-80
2020/12/01 02:22:26;;;;;;;21.15;9.65;;;;;;;-1.64;74.52;97202.63;1729496;83;21123;-80
2020/12/01 02:24:55;;;;;;;18.15;11.18;;;;;;;-1.61;74.04;97204.84;1729495;83;21498;-80
2020/12/01 02:27:25;;;;;;;17.62;10.03;;;;;;;-1.63;73.66;97195.14;1724625;83;21519;-80
2020/12/01 02:29:57;;;;;;;18.75;9.30;;;;;;;-1.63;73.41;97193.83;1729487;83;21491;-80
2020/12/01 02:32:27;;;;;;;16.90;9.93;;;;;;;-1.72;73.10;97204.04;1729394;83;21099;-80
2020/12/01 02:34:59;;;;;;;19.00;11.38;;;;;;;-1.81;73.08;97194.28;1729577;83;21467;-79
2020/12/01 02:37:28;;;;;;;18.73;9.30;;;;;;;-1.87;73.46;97195.00;1729342;83;21143;-79
2020/12/01 02:39:57;;;;;;;19.50;11.38;;;;;;;-1.98;73.52;97196.78;1729497;83;21168;-79
2020/12/01 02:42:27;;;;;;;20.35;9.60;;;;;;;-2.08;73.86;97197.10;1729820;82;21143;-79
2020/12/01 02:44:58;;;;;;;19.42;8.93;;;;;;;-2.15;74.02;97194.91;1729562;83;21134;-79
2020/12/01 02:47:25;;;;;;;19.27;9.65;;;;;;;-2.17;74.31;97199.48;1729555;83;21100;-79
2020/12/01 02:49:53;;;;;;;20.32;8.33;;;;;;;-2.17;74.41;97196.89;1729624;83;21134;-79
2020/12/01 02:52:23;;;;;;;21.27;11.18;;;;;;;-2.24;74.46;97197.33;1729351;83;21119;-79
2020/12/01 02:54:51;;;;;;;22.07;12.18;;;;;;;-2.29;74.63;97197.86;1729527;83;21502;-79
2020/12/01 02:57:20;;;;;;;14.38;8.10;;;;;;;-2.32;74.67;97197.42;1729332;83;21135;-79
2020/12/01 02:59:47;;;;;;;24.18;12.20;;;;;;;-2.41;74.60;97183.73;1729307;83;21507;-79
2020/12/01 03:02:14;;;;;;;20.92;11.38;;;;;;;-2.40;74.77;97192.63;1729355;83;21155;-79
2020/12/01 03:04:41;;;;;;;19.87;10.70;;;;;;;-2.41;74.87;97188.42;1729388;83;21473;-79
2020/12/01 03:07:08;;;;;;;18.52;8.60;;;;;;;-2.40;74.88;97188.73;1729332;83;21182;-79
2020/12/01 03:09:35;;;;;;;16.65;8.48;;;;;;;-2.41;74.68;97187.13;1729429;83;21150;-79
2020/12/01 03:12:03;;;;;;;15.90;7.60;;;;;;;-2.45;74.63;97180.70;1729821;81;21168;-79
2020/12/01 03:14:30;;;;;;;18.60;9.18;;;;;;;-2.46;74.59;97180.39;1729394;83;21154;-79
2020/12/01 03:16:57;;;;;;;15.90;9.13;;;;;;;-2.45;74.44;97178.10;1729307;83;21483;-79
2020/12/01 03:19:23;;;;;;;18.12;9.73;;;;;;;-2.52;74.36;97179.83;1729383;83;21154;-79
2020/12/01 03:21:50;;;;;;;16.75;9.05;;;;;;;-2.56;74.29;97175.97;1729120;83;21127;-79
2020/12/01 03:24:17;;;;;;;15.50;8.70;;;;;;;-2.55;74.14;97177.58;1728780;83;21138;-79
2020/12/01 03:26:44;;;;;;;17.57;7.95;;;;;;;-2.50;73.77;97175.75;1728824;83;21146;-79
2020/12/01 03:29:12;;;;;;;17.02;8.58;;;;;;;-2.49;73.50;97170.38;1728900;83;21167;-79
2020/12/01 03:31:39;;;;;;;20.75;7.72;;;;;;;-2.52;73.46;97175.94;1728860;83;21146;-79
2020/12/01 03:34:06;;;;;;;13.38;7.72;;;;;;;-2.55;73.52;97169.79;1728937;83;21495;-79
2020/12/01 03:36:33;;;;;;;15.63;6.40;;;;;;;-2.58;73.46;97159.77;1728904;83;22101;-79
2020/12/01 03:39:00;;;;;;;17.85;7.67;;;;;;;-2.58;73.06;97166.27;1728799;83;21154;-79
2020/12/01 03:41:27;;;;;;;23.02;7.55;;;;;;;-2.57;72.84;97160.58;1729305;82;21147;-79
2020/12/01 03:43:54;;;;;;;10.85;5.12;;;;;;;-2.58;72.54;97164.97;1728886;83;21480;-79
2020/12/01 03:46:21;;;;;;;14.95;8.30;;;;;;;-2.60;72.34;97165.64;1728795;83;21652;-79
2020/12/01 03:48:48;;;;;;;14.20;6.92;;;;;;;-2.59;72.56;97165.16;1728809;83;21482;-79
2020/12/01 03:51:15;;;;;;;9.80;5.70;;;;;;;-2.67;72.45;97158.75;1728894;83;21506;-79
2020/12/01 03:53:42;;;;;;;16.23;7.47;;;;;;;-2.72;72.60;97153.62;1728773;83;21668;-79
2020/12/01 03:56:09;;;;;;;13.98;7.85;;;;;;;-2.73;72.75;97161.09;1728852;83;21139;-79
2020/12/01 03:58:37;;;;;;;11.55;5.75;;;;;;;-2.78;72.90;97157.45;1728769;83;21151;-79
2020/12/01 04:01:04;;;;;;;12.40;6.47;;;;;;;-2.80;72.90;97142.55;1728823;83;21184;-79
2020/12/01 04:03:31;;;;;;;12.30;6.83;;;;;;;-2.78;73.08;97145.27;1728860;83;21537;-79
2020/12/01 04:05:58;;;;;;;12.80;7.22;;;;;;;-2.83;73.23;97146.78;1728923;83;21503;-79
2020/12/01 04:08:25;;;;;;;15.90;8.40;;;;;;;-2.92;73.47;97142.69;1728844;83;21147;-79
2020/12/01 04:10:51;;;;;;;13.03;7.65;;;;;;;-3.03;73.81;97147.34;1728720;83;21498;-79
2020/12/01 04:13:18;;;;;;;12.00;6.95;;;;;;;-3.08;73.95;97143.69;1729300;82;21285;-79
2020/12/01 04:15:45;;;;;;;13.22;7.33;;;;;;;-3.14;74.36;97143.89;1728828;83;21135;-79
2020/12/01 04:18:13;;;;;;;13.53;7.20;;;;;;;-3.14;74.31;97142.59;1728743;83;21162;-79
2020/12/01 04:20:41;;;;;;;15.85;8.68;;;;;;;-3.15;74.41;97138.88;1728953;83;21528;-79
2020/12/01 04:23:08;;;;;;;15.08;7.85;;;;;;;-3.20;74.36;97136.84;1728789;83;21154;-79
2020/12/01 04:25:35;;;;;;;15.58;9.13;;;;;;;-3.25;74.42;97130.56;1728895;83;21645;-79
2020/12/01 04:28:05;;;;;;;15.20;7.90;;;;;;;-3.29;74.36;97136.11;1728726;83;21170;-79
2020/12/01 04:30:33;;;;;;;15.40;7.47;;;;;;;-3.34;74.52;97132.45;1728954;83;21173;-79
2020/12/01 04:33:00;;;;;;;14.85;8.18;;;;;;;-3.34;74.44;97129.86;1728737;83;21107;-79
2020/12/01 04:35:28;;;;;;;8.98;4.20;;;;;;;-3.31;74.36;97129.49;1728780;83;21138;-79
2020/12/01 04:37:59;;;;;;;6.37;3.25;;;;;;;-3.31;74.16;97122.52;1728819;83;21459;-79
2020/12/01 04:40:30;;;;;;;12.03;6.95;;;;;;;-3.17;73.97;97127.89;1728952;83;21498;-79
2020/12/01 04:43:03;;;;;;;10.30;5.55;;;;;;;-3.06;73.94;97132.14;1729565;82;21095;-79
2020/12/01 04:45:30;;;;;;;12.50;6.53;;;;;;;-3.09;73.79;97129.11;1728300;83;21144;-79
2020/12/01 04:51:42;;;;;;;15.85;6.78;;;;;;;-3.13;73.87;97131.23;1762528;79;23319;-78
2020/12/01 04:54:52;;;;;;;14.10;6.55;;;;;;;-3.21;73.88;97135.72;1729388;83;21096;-79
2020/12/01 04:57:48;;;;;;;13.93;5.90;;;;;;;-3.24;73.99;97134.27;1726748;83;21155;-79
2020/12/01 05:00:55;;;;;;;15.23;7.75;;;;;;;-3.31;74.04;97121.72;1729477;81;21115;-79
2020/12/01 05:03:51;;;;;;;12.20;7.50;;;;;;;-3.37;74.25;97130.22;1729373;83;21139;-78
2020/12/01 05:06:36;;;;;;;16.50;8.30;;;;;;;-3.43;74.41;97130.91;1729595;83;21107;-79
2020/12/01 05:09:17;;;;;;;18.48;9.38;;;;;;;-3.53;74.62;97131.64;1728472;83;21175;-79
2020/12/01 05:11:56;;;;;;;14.38;7.92;;;;;;;-3.60;74.73;97130.27;1721507;83;21625;-79
2020/12/01 05:14:37;;;;;;;16.45;8.40;;;;;;;-3.65;74.79;97136.47;1729554;83;21126;-79
2020/12/01 05:17:42;;;;;;;14.55;6.85;;;;;;;-3.72;74.71;97135.05;1729399;83;21127;-79
2020/12/01 05:20:09;;;;;;;14.85;7.10;;;;;;;-3.72;74.75;97134.25;1728724;82;21129;-79
2020/12/01 05:22:38;;;;;;;13.25;6.70;;;;;;;-3.74;74.71;97134.92;1729440;83;21138;-79
2020/12/01 05:25:09;;;;;;;12.35;6.45;;;;;;;-3.79;74.54;97130.27;1729463;83;21135;-79
2020/12/01 05:27:37;;;;;;;12.15;5.95;;;;;;;-3.87;74.49;97132.12;1727016;83;21127;-79
2020/12/01 05:30:24;;;;;;;14.90;6.40;;;;;;;-3.93;74.56;97129.25;1729326;82;21475;-79
2020/12/01 05:33:09;;;;;;;17.05;6.62;;;;;;;-4.00;74.44;97139.98;1729409;83;21127;-78
2020/12/01 05:35:37;;;;;;;14.78;6.92;;;;;;;-4.03;74.62;97136.94;1722791;83;21104;-79
2020/12/01 05:38:16;;;;;;;15.70;7.28;;;;;;;-4.06;74.69;97136.00;1729446;83;21510;-79
2020/12/01 05:40:54;;;;;;;15.58;6.50;;;;;;;-4.13;74.84;97129.39;1729422;81;21115;-79
2020/12/01 05:43:33;;;;;;;15.93;7.28;;;;;;;-4.15;74.97;97130.55;1729386;83;21095;-79
2020/12/01 05:46:27;;;;;;;13.88;6.72;;;;;;;-4.16;75.06;97130.23;1729438;83;21159;-79
2020/12/01 05:49:05;;;;;;;16.23;7.42;;;;;;;-4.19;75.15;97127.02;1729338;83;21514;-78
2020/12/01 05:51:40;;;;;;;15.03;8.90;;;;;;;-4.18;75.24;97127.82;1734831;81;21123;-78
2020/12/01 05:56:54;;;;;;;19.20;9.53;;;;;;;-4.11;75.65;97127.92;1785266;79;23063;-78
2020/12/01 05:59:24;;;;;;;19.60;9.48;;;;;;;-4.12;75.78;97132.78;1758541;81;21542;-78
2020/12/01 06:01:57;;;;;;;18.75;8.43;;;;;;;-4.10;75.77;97126.94;1729569;83;21162;-78
2020/12/01 06:04:26;;;;;;;13.70;7.97;;;;;;;-4.11;75.74;97126.63;1729478;83;21488;-78
2020/12/01 06:07:17;;;;;;;14.68;7.70;;;;;;;-4.16;75.66;97131.53;1729574;83;21142;-78
2020/12/01 06:09:50;;;;;;;12.85;6.85;;;;;;;-4.19;75.69;97132.69;1729509;82;21168;-79
2020/12/01 06:12:25;;;;;;;13.70;6.67;;;;;;;-4.21;75.64;97135.45;1729277;83;21127;-79
2020/12/01 06:15:12;;;;;;;14.70;7.90;;;;;;;-4.26;75.50;97131.25;1729496;83;21182;-79
2020/12/01 06:18:12;;;;;;;17.35;8.18;;;;;;;-4.29;75.80;97132.90;1728968;83;21146;-78
2020/12/01 06:21:05;;;;;;;14.03;7.57;;;;;;;-4.20;76.00;97132.37;1729529;82;21157;-78
2020/12/01 06:24:11;;;;;;;15.88;8.33;;;;;;;-4.20;76.00;97132.37;1729514;83;21142;-79
2020/12/01 06:27:21;;;;;;;17.12;8.48;;;;;;;-4.17;76.07;97133.80;1725913;83;21142;-79
2020/12/01 06:30:15;;;;;;;16.87;6.83;;;;;;;-4.16;76.11;97131.53;1729508;82;21131;-79
2020/12/01 06:32:59;;;;;;;8.55;5.33;;;;;;;-4.22;76.17;97131.25;1729372;83;21127;-79
2020/12/01 06:35:44;;;;;;;17.02;10.35;;;;;;;-4.23;76.38;97128.31;1728372;83;21143;-79
2020/12/01 06:39:14;;;;;;;16.80;10.50;;;;;;;-4.13;76.37;97131.98;1818967;78;28567;-78
2020/12/01 06:41:52;;;;;;;15.32;8.95;;;;;;;-4.11;76.18;97134.39;1763320;80;21329;-79
2020/12/01 06:44:23;;;;;;;16.10;8.83;;;;;;;-3.98;76.06;97127.66;1763114;80;21281;-78
2020/12/01 06:46:55;;;;;;;12.10;7.60;;;;;;;-3.85;76.05;97127.08;1763391;81;21290;-79
2020/12/01 06:49:32;;;;;;;14.38;8.73;;;;;;;-3.64;75.91;97122.53;1763092;80;21602;-79
2020/12/01 06:52:13;;;;;;;15.88;8.53;;;;;;;-3.37;75.56;97112.87;1763256;81;21293;-79
2020/12/01 06:54:52;;;;;;;16.77;8.85;;;;;;;-3.01;75.24;97116.84;1763125;81;21132;-78
2020/12/01 06:57:36;;;;;;;14.50;8.03;;;;;;;-2.59;74.73;97115.84;1763126;81;21653;-79
2020/12/01 07:00:08;;;;;;;17.98;9.93;;;;;;;-2.06;74.22;97115.89;1763161;80;21270;-79
2020/12/01 07:02:40;;;;;;;16.90;9.43;;;;;;;-1.72;73.62;97108.67;1763167;81;21290;-79
2020/12/01 07:05:29;;;;;;;16.67;8.75;;;;;;;-1.25;73.43;97104.12;1763107;81;21262;-79
2020/12/01 07:07:56;;;;;;;14.60;9.15;;;;;;;-1.04;71.58;97110.22;1762143;81;21650;-79
2020/12/01 07:10:30;;;;;;;17.07;9.68;;;;;;;-0.74;71.60;97106.36;1763098;80;21274;-79
2020/12/01 07:13:15;;;;;;;17.20;10.03;;;;;;;-0.40;71.60;97104.69;1763344;81;21112;-79
2020/12/01 07:15:49;;;;;;;20.15;11.60;;;;;;;-0.05;70.62;97108.75;1763117;81;21143;-79
2020/12/01 07:18:30;;;;;;;22.65;14.23;;;;;;;0.02;68.50;97112.68;1763162;81;21258;-79
2020/12/01 07:21:46;;;;;;;18.98;11.03;;;;;;;-0.16;67.92;97114.53;1763255;80;21161;-79
2020/12/01 07:24:22;;;;;;;16.50;10.55;;;;;;;-0.12;68.35;97109.25;1763181;81;21124;-79
2020/12/01 07:27:00;;;;;;;17.90;10.63;;;;;;;-0.16;67.44;97112.43;1763149;81;21302;-79
2020/12/01 07:29:50;;;;;;;19.07;10.60;;;;;;;-0.25;67.35;97105.32;1743979;80;21139;-79
2020/12/01 07:32:25;;;;;;;17.12;10.10;;;;;;;-0.16;67.92;97104.11;1763183;81;21108;-79
2020/12/01 07:35:07;;;;;;;20.55;9.83;;;;;;;0.10;67.42;97107.26;1763337;81;21127;-79
2020/12/01 07:37:55;;;;;;;15.68;9.10;;;;;;;0.35;67.90;97106.17;1762009;80;21136;-79
2020/12/01 07:40:30;;;;;;;18.57;9.83;;;;;;;0.66;67.71;97106.04;1763219;80;21277;-79
2020/12/01 07:43:02;;;;;;;18.25;10.58;;;;;;;0.89;67.28;97105.91;1760513;81;21619;-79
2020/12/01 07:45:31;;;;;;;44.93;21.43;;;;;;;0.96;66.15;97105.88;1763110;81;21123;-79
2020/12/01 07:48:01;;;;;;;24.75;14.90;;;;;;;0.88;65.17;97105.61;1762955;81;21491;-79
2020/12/01 07:50:32;;;;;;;18.37;9.85;;;;;;;0.87;66.00;97104.52;1762784;80;21108;-80
2020/12/01 07:53:10;;;;;;;18.77;9.63;;;;;;;0.84;65.53;97108.30;1762601;81;21120;-79
2020/12/01 07:55:57;;;;;;;18.15;10.80;;;;;;;0.84;65.67;97112.22;1762798;81;21128;-79
2020/12/01 07:58:28;;;;;;;16.37;9.73;;;;;;;0.91;65.84;97105.70;1762639;81;21487;-79
2020/12/01 08:01:00;;;;;;;;;;;;;;;0.83;65.36;97105.40;1765240;80;21109;-79
2020/12/01 08:03:36;;;;;;;15.25;9.38;;;;;;;0.91;65.72;97108.31;1762862;81;20108;-79
2020/12/01 08:06:08;;;;;;;17.40;8.67;;;;;;;0.86;65.13;97107.63;1762768;81;21119;-79
2020/12/01 08:08:40;;;;;;;16.62;8.95;;;;;;;0.80;64.83;97111.53;1762603;81;21120;-80
2020/12/01 08:11:14;;;;;;;16.23;8.73;;;;;;;0.70;64.73;97109.84;1762665;80;21161;-79
2020/12/01 08:13:45;;;;;;;14.10;7.58;;;;;;;0.61;64.25;97111.87;1762670;81;21136;-79
2020/12/01 08:16:17;;;;;;;17.27;9.58;;;;;;;0.47;64.73;97111.59;1762715;81;21136;-79
2020/12/01 08:18:49;;;;;;;17.12;9.18;;;;;;;0.16;63.98;97110.89;1762549;81;21484;-80
2020/12/01 08:21:21;;;;;;;16.10;9.20;;;;;;;0.21;65.24;97116.30;1762527;80;21545;-79
2020/12/01 08:23:52;;;;;;;14.50;8.08;;;;;;;0.37;65.15;97110.67;1762863;81;21144;-80
2020/12/01 08:26:24;;;;;;;17.37;9.38;;;;;;;0.43;64.81;97109.89;1762685;81;21128;-80
2020/12/01 08:29:20;;;;;;;15.45;8.43;;;;;;;0.46;64.71;97106.88;1762468;81;21135;-80
2020/12/01 08:32:27;;;;;;;13.53;7.50;;;;;;;0.41;63.95;97113.68;1762657;81;21170;-80
2020/12/01 08:35:20;;;;;;;11.90;7.53;;;;;;;0.26;64.04;97116.48;1762629;81;21514;-80
2020/12/01 08:38:10;;;;;;;15.75;8.78;;;;;;;0.12;63.86;97104.45;1765626;81;21104;-80
2020/12/01 08:41:09;;;;;;;14.60;7.58;;;;;;;0.05;64.58;97115.39;1768582;80;21139;-80
2020/12/01 08:44:16;;;;;;;16.77;8.08;;;;;;;0.08;64.77;97120.20;1768568;80;21131;-80
2020/12/01 08:46:47;;;;;;;12.43;7.35;;;;;;;0.22;64.65;97122.61;1768264;80;21123;-80
2020/12/01 08:49:41;;;;;;;14.80;8.33;;;;;;;0.18;64.16;97121.41;1768625;80;21462;-80
2020/12/01 08:52:03;;;;;;;13.85;7.58;;;;;;;0.05;64.31;97117.49;1766586;81;21170;-80
2020/12/01 08:54:35;;;;;;;16.00;8.68;;;;;;;-0.03;63.87;97112.45;1768640;80;21181;-80
2020/12/01 08:57:08;;;;;;;14.85;8.20;;;;;;;-0.17;63.56;97118.14;1768392;80;21559;-79
2020/12/01 08:59:46;;;;;;;15.58;8.73;;;;;;;-0.32;64.24;97118.81;1767758;80;21119;-80
2020/12/01 09:02:17;;;;;;;13.62;7.83;;;;;;;-0.31;64.72;97115.20;1764407;81;21472;-80
2020/12/01 09:04:46;;;;;;;18.17;9.33;;;;;;;-0.18;64.44;97108.72;1768527;80;21123;-80
2020/12/01 09:07:20;;;;;;;15.85;8.90;;;;;;;-0.20;64.34;97106.82;1768573;80;21526;-80
2020/12/01 09:09:55;;;;;;;16.67;9.60;;;;;;;-0.06;65.07;97105.84;1768589;80;21143;-80
2020/12/01 09:12:30;;;;;;;17.80;9.68;;;;;;;0.13;64.92;97106.85;1767319;80;21144;-80
2020/12/01 09:15:07;;;;;;;22.93;12.05;;;;;;;0.24;64.44;97106.27;1768476;80;21124;-80
2020/12/01 09:18:02;;;;;;;18.15;9.78;;;;;;;0.31;64.92;97104.98;1768201;80;21539;-80
2020/12/01 09:21:00;;;;;;;20.25;11.50;;;;;;;0.46;64.44;97104.77;1768058;80;21157;-80
2020/12/01 09:23:32;;;;;;;19.15;10.75;;;;;;;0.53;64.58;97097.22;1768349;80;21511;-80
2020/12/01 09:26:03;;;;;;;17.40;9.98;;;;;;;0.56;63.41;97092.09;1768671;80;21131;-80
2020/12/01 09:28:32;;;;;;;16.95;10.10;;;;;;;0.51;63.55;97094.52;1768511;81;21132;-80
2020/12/01 09:31:05;;;;;;;17.12;9.58;;;;;;;0.53;63.66;97094.61;1768499;80;21140;-80
2020/12/01 09:33:33;;;;;;;18.82;9.88;;;;;;;0.57;63.75;97097.14;1768494;81;21475;-80
2020/12/01 09:36:00;;;;;;;16.95;9.45;;;;;;;0.73;64.00;97091.19;1768655;80;21139;-80
2020/12/01 09:38:27;;;;;;;19.12;9.75;;;;;;;0.82;62.87;97089.95;1764179;80;21125;-80
2020/12/01 09:40:54;;;;;;;21.62;11.08;;;;;;;0.74;63.14;97087.07;1762522;80;21549;-80
2020/12/01 09:43:28;;;;;;;16.17;9.18;;;;;;;0.64;62.20;97086.68;1762445;81;21507;-80
2020/12/01 09:45:52;;;;;;;20.25;12.05;;;;;;;0.66;62.43;97086.47;1762142;81;21151;-80
2020/12/01 09:48:25;;;;;;;19.85;9.68;;;;;;;0.48;62.13;97085.80;1762453;81;21131;-80
2020/12/01 09:50:50;;;;;;;;;;;;;;;0.52;62.51;97082.58;1765053;80;21423;-80
2020/12/01 09:53:31;;;;;;;16.90;8.25;;;;;;;0.55;62.73;97067.81;1762458;81;20127;-80
2020/12/01 09:56:08;;;;;;;20.17;11.18;;;;;;;0.57;61.39;97067.14;1762349;81;21155;-80
2020/12/01 10:10:23;;;;;;;15.45;8.85;;;;;;;0.89;61.36;97054.21;1670472;85;21168;-80
2020/12/01 10:12:54;;;;;;;15.48;8.40;;;;;;;0.63;61.26;97064.70;1718722;83;21175;-80
2020/12/01 10:15:49;;;;;;;16.97;8.93;;;;;;;0.57;60.84;97059.81;1720735;83;21154;-80
2020/12/01 10:21:46;;;;;;;14.75;7.97;;;;;;;0.61;60.92;97064.12;1719833;83;21530;-80
2020/12/01 10:35:14;;;;;;;22.77;9.95;;;;;;;1.05;60.39;97052.44;1729135;83;21152;-80
2020/12/01 10:37:41;;;;;;;18.55;10.43;;;;;;;1.09;61.20;97063.27;1728370;83;21339;-80
2020/12/01 10:40:08;;;;;;;20.45;10.95;;;;;;;1.21;60.97;97055.59;1728771;83;21173;-80
2020/12/01 10:42:35;;;;;;;15.78;8.93;;;;;;;1.03;59.96;97055.77;1728582;83;21312;-80
2020/12/01 10:45:03;;;;;;;15.45;9.48;;;;;;;0.96;59.63;97047.64;1728792;83;21112;-80
2020/12/01 10:47:30;;;;;;;16.15;9.40;;;;;;;0.83;60.31;97044.07;1728694;83;21522;-80
2020/12/01 10:49:57;;;;;;;18.42;10.40;;;;;;;0.80;60.17;97042.38;1728771;82;21146;-80
2020/12/01 10:52:24;;;;;;;16.87;9.40;;;;;;;0.77;60.71;97047.52;1728686;83;21498;-80
2020/12/01 10:54:51;;;;;;;17.20;10.05;;;;;;;0.98;60.80;97046.43;1728789;83;21119;-80
2020/12/01 10:57:19;;;;;;;15.78;10.15;;;;;;;1.01;60.35;97047.84;1728585;83;21289;-80
2020/12/01 10:59:46;;;;;;;16.80;9.30;;;;;;;0.90;60.58;97047.98;1728686;82;21174;-81
2020/12/01 11:02:13;;;;;;;19.95;10.45;;;;;;;1.01;60.27;97049.16;1728625;83;21135;-80
2020/12/01 11:04:40;;;;;;;16.15;10.00;;;;;;;0.99;60.26;97047.26;1728694;83;21269;-80
2020/12/01 11:07:08;;;;;;;13.40;7.42;;;;;;;0.92;59.94;97051.19;1728623;83;21538;-80
2020/12/01 11:09:35;;;;;;;19.35;10.18;;;;;;;0.93;59.76;97053.28;1728595;82;21151;-80
2020/12/01 11:12:02;;;;;;;13.55;6.55;;;;;;;0.99;60.32;97052.48;1728828;83;21115;-80
2020/12/01 11:14:29;;;;;;;17.80;10.40;;;;;;;1.11;59.22;97041.66;1728639;83;21289;-81
2020/12/01 11:16:57;;;;;;;15.78;10.28;;;;;;;0.99;59.53;97057.20;1728917;83;21495;-81
2020/12/01 11:19:24;;;;;;;15.35;8.58;;;;;;;1.08;60.23;97060.36;1728619;82;21315;-80
2020/12/01 11:21:51;;;;;;;18.55;10.30;;;;;;;1.21;59.67;97057.70;1728809;83;21284;-81
2020/12/01 11:24:18;;;;;;;15.53;8.88;;;;;;;1.14;59.80;97051.21;1728745;83;21143;-81
2020/12/01 11:26:45;;;;;;;16.77;9.20;;;;;;;1.17;59.34;97052.60;1728871;83;21138;-81
2020/12/01 11:29:14;;;;;;;15.72;9.43;;;;;;;1.07;59.72;97055.64;1728835;83;21142;-81
2020/12/01 11:31:45;;;;;;;17.07;8.65;;;;;;;1.24;60.44;97056.48;1729135;82;21178;-80
2020/12/01 11:34:14;;;;;;;17.75;10.55;;;;;;;1.28;58.96;97049.34;1728768;83;21146;-81
2020/12/01 11:36:42;;;;;;;15.25;9.25;;;;;;;1.28;60.05;97060.30;1728734;83;21590;-80
2020/12/01 11:39:13;;;;;;;15.70;9.08;;;;;;;1.49;59.82;97062.59;1728718;83;21175;-80
2020/12/01 11:41:42;;;;;;;17.62;8.90;;;;;;;1.52;59.17;97063.47;1728853;82;21281;-81
2020/12/01 11:44:12;;;;;;;14.98;9.33;;;;;;;1.34;58.43;97051.11;1728854;83;21279;-81
2020/12/01 11:46:40;;;;;;;12.90;7.33;;;;;;;1.28;58.84;97054.56;1729144;83;21624;-81
2020/12/01 11:49:10;;;;;;;16.70;9.50;;;;;;;1.23;57.96;97054.37;1728933;83;21157;-81
2020/12/01 11:51:40;;;;;;;14.70;8.85;;;;;;;1.13;58.36;97056.14;1728732;82;21138;-81
2020/12/01 11:54:10;;;;;;;18.10;9.63;;;;;;;1.14;58.60;97054.33;1728744;83;21242;-81
2020/12/01 11:56:38;;;;;;;15.13;9.15;;;;;;;1.19;58.88;97053.19;1728924;83;21111;-81
2020/12/01 11:59:06;;;;;;;16.27;10.15;;;;;;;1.37;59.10;97055.11;1728772;83;21146;-81
2020/12/01 12:01:35;;;;;;;14.98;9.00;;;;;;;1.46;58.97;97052.56;1728904;82;21625;-81
2020/12/01 12:04:06;;;;;;;16.80;8.93;;;;;;;1.55;58.33;97045.26;1728859;83;21296;-81
2020/12/01 12:06:36;;;;;;;16.37;9.95;;;;;;;1.51;58.21;97043.58;1728927;83;21462;-80
2020/12/01 12:09:07;;;;;;;16.35;8.95;;;;;;;1.42;58.85;97046.16;1728770;83;21112;-80
2020/12/01 12:11:35;;;;;;;16.77;10.10;;;;;;;1.37;57.92;97047.27;1728777;82;21552;-81
2020/12/01 12:14:04;;;;;;;16.62;9.68;;;;;;;1.31;58.52;97045.00;1728721;83;21147;-81
2020/12/01 12:16:32;;;;;;;17.82;9.55;;;;;;;1.35;58.59;97044.88;1728722;83;21135;-81
2020/12/01 12:19:01;;;;;;;18.62;10.58;;;;;;;1.39;58.69;97043.94;1728896;83;21142;-81
2020/12/01 12:21:28;;;;;;;16.75;9.63;;;;;;;1.41;59.11;97049.78;1728817;82;21621;-80
2020/12/01 12:23:55;;;;;;;16.12;9.43;;;;;;;1.56;59.01;97032.02;1728707;83;21272;-81
2020/12/01 12:26:22;;;;;;;18.10;10.53;;;;;;;1.50;58.35;97032.84;1728763;83;21138;-81
2020/12/01 12:28:50;;;;;;;17.67;10.60;;;;;;;1.44;59.03;97031.88;1728723;83;21621;-81
2020/12/01 12:31:19;;;;;;;18.57;10.68;;;;;;;1.66;59.58;97026.30;1728805;82;21150;-81